Time,TemperatureF,DewpointF,PressureIn,WindDirection,WindDirectionDegrees,WindSpeedMPH,WindSpeedGustMPH,Humidity,HourlyPrecipIn,Conditions,Clouds,dailyrainin,SoftwareType,DateUTC
2013-08-30 00:02:00,63.3,58.4,30.04,ESE,114,0.0,0.0,84,0.00,RA,RA,0.00,WeatherDisplay:10.37,2013-08-30 07:02:00,
2013-08-30 00:17:00,63.1,58.2,30.05,ESE,114,0.0,0.0,84,0.00,OVC,OVC,0.00,WeatherDisplay:10.37,2013-08-30 07:17:00,
2013-08-30 00:32:00,63.1,58.2,30.04,ESE,112,0.0,0.0,84,0.00,OVC,OVC,0.00,WeatherDisplay:10.37,2013-08-30 07:32:00,
2013-08-30 00:47:00,63.1,58.2,30.05,ESE,112,0.0,0.0,84,0.00,OVC,OVC,0.00,WeatherDisplay:10.37,2013-08-30 07:47:00,
2013-08-30 01:02:00,63.1,58.2,30.05,ESE,114,0.0,0.0,84,0.00,OVC,OVC,0.00,WeatherDisplay:10.37,2013-08-30 08:02:00,
2013-08-30 01:17:00,63.0,58.0,30.06,ESE,114,0.0,0.0,84,0.00,OVC,OVC,0.00,WeatherDisplay:10.37,2013-08-30 08:17:00,
2013-08-30 01:32:00,63.0,58.0,30.06,ESE,114,0.0,0.0,84,0.00,OVC,OVC,0.00,WeatherDisplay:10.37,2013-08-30 08:32:00,
2013-08-30 01:47:00,63.0,58.0,30.06,ESE,114,0.0,0.0,84,0.00,OVC,OVC,0.00,WeatherDisplay:10.37,2013-08-30 08:47:00,
2013-08-30 02:02:00,62.4,57.5,30.06,ESE,114,0.0,0.0,84,0.00,OVC,OVC,0.00,WeatherDisplay:10.37,2013-08-30 09:02:00,
2013-08-30 02:17:00,62.4,57.5,30.06,ESE,114,0.0,0.0,84,0.00,OVC,OVC,0.00,WeatherDisplay:10.37,2013-08-30 09:17:00,
2013-08-30 02:32:00,62.2,57.3,30.05,ESE,114,0.0,0.0,84,0.00,OVC,OVC,0.00,WeatherDisplay:10.37,2013-08-30 09:32:00,
2013-08-30 02:47:00,62.1,57.2,30.06,ESE,114,0.0,0.0,84,0.00,OVC,OVC,0.00,WeatherDisplay:10.37,2013-08-30 09:47:00,
2013-08-30 03:02:00,62.1,57.2,30.06,ESE,114,0.0,0.0,84,0.00,OVC,OVC,0.00,WeatherDisplay:10.37,2013-08-30 10:02:00,
2013-08-30 03:17:00,62.2,57.7,30.06,ESE,114,0.0,0.0,85,0.00,OVC,OVC,0.00,WeatherDisplay:10.37,2013-08-30 10:17:00,
2013-08-30 03:32:00,62.2,57.7,30.06,ESE,114,0.0,0.0,85,0.00,OVC,OVC,0.00,WeatherDisplay:10.37,2013-08-30 10:32:00,
2013-08-30 03:47:00,62.1,57.5,30.07,ESE,114,0.0,0.0,85,0.00,OVC,OVC,0.00,WeatherDisplay:10.37,2013-08-30 10:47:00,
2013-08-30 04:02:00,62.1,57.5,30.07,ESE,114,0.0,0.0,85,0.00,OVC,OVC,0.00,WeatherDisplay:10.37,2013-08-30 11:02:00,
2013-08-30 04:17:00,61.9,57.3,30.07,ESE,114,0.0,0.0,85,0.00,OVC,OVC,0.00,WeatherDisplay:10.37,2013-08-30 11:17:00,
2013-08-30 04:32:00,61.5,57.0,30.08,ESE,114,0.0,0.0,85,0.00,OVC,OVC,0.00,WeatherDisplay:10.37,2013-08-30 11:32:00,
2013-08-30 04:47:00,61.5,57.0,30.08,ESE,114,0.0,0.0,85,0.00,OVC,OVC,0.00,WeatherDisplay:10.37,2013-08-30 11:47:00,
2013-08-30 05:02:00,61.5,57.0,30.09,ESE,114,0.0,0.0,85,0.00,OVC,OVC,0.00,WeatherDisplay:10.37,2013-08-30 12:02:00,
2013-08-30 05:17:00,61.0,56.4,30.09,ESE,105,0.0,0.0,85,0.00,OVC,OVC,0.00,WeatherDisplay:10.37,2013-08-30 12:17:00,
2013-08-30 05:32:00,60.4,55.9,30.09,ENE,68,0.0,0.0,85,0.00,OVC,OVC,0.00,WeatherDisplay:10.37,2013-08-30 12:32:00,
2013-08-30 05:47:00,60.4,55.9,30.10,ENE,68,0.0,0.0,85,0.00,OVC,OVC,0.00,WeatherDisplay:10.37,2013-08-30 12:47:00,
2013-08-30 06:02:00,59.7,55.2,30.10,ENE,68,0.0,0.0,85,0.00,OVC,OVC,0.00,WeatherDisplay:10.37,2013-08-30 13:02:00,
2013-08-30 06:17:00,59.2,54.7,30.11,ENE,68,0.0,0.0,85,0.00,OVC,OVC,0.00,WeatherDisplay:10.37,2013-08-30 13:17:00,
2013-08-30 06:32:00,58.8,54.3,30.11,ENE,68,0.0,0.0,85,0.00,OVC,OVC,0.00,WeatherDisplay:10.37,2013-08-30 13:32:00,
2013-08-30 06:47:00,58.8,54.3,30.11,ENE,68,0.0,0.0,85,0.00,OVC,OVC,0.00,WeatherDisplay:10.37,2013-08-30 13:47:00,
2013-08-30 07:02:00,58.8,54.3,30.12,ENE,68,0.0,0.0,85,0.00,OVC,OVC,0.00,WeatherDisplay:10.37,2013-08-30 14:02:00,
2013-08-30 07:17:00,58.3,53.8,30.12,ENE,68,0.0,0.0,85,0.00,OVC,OVC,0.00,WeatherDisplay:10.37,2013-08-30 14:17:00,
2013-08-30 07:32:00,58.1,53.6,30.13,ENE,68,0.0,0.0,85,0.00,OVC,OVC,0.00,WeatherDisplay:10.37,2013-08-30 14:32:00,
2013-08-30 07:47:00,57.9,53.4,30.14,ENE,68,0.0,0.0,85,0.00,OVC,OVC,0.00,WeatherDisplay:10.37,2013-08-30 14:47:00,
2013-08-30 08:02:00,58.1,53.6,30.14,ENE,68,0.0,0.0,85,0.00,OVC,OVC,0.00,WeatherDisplay:10.37,2013-08-30 15:02:00,
2013-08-30 08:17:00,58.3,54.1,30.14,ENE,68,0.0,0.0,86,0.00,OVC,OVC,0.00,WeatherDisplay:10.37,2013-08-30 15:17:00,
2013-08-30 08:32:00,62.6,58.4,30.14,ENE,68,0.0,0.0,86,0.00,OVC,OVC,0.00,WeatherDisplay:10.37,2013-08-30 15:32:00,
2013-08-30 08:47:00,65.3,61.3,30.14,NE,51,0.0,0.0,87,0.02,RA,RA,0.02,WeatherDisplay:10.37,2013-08-30 15:47:00,
2013-08-30 09:02:00,65.8,61.2,30.14,NW,315,0.0,0.0,85,0.00,OVC,OVC,0.02,WeatherDisplay:10.37,2013-08-30 16:02:00,
2013-08-30 09:17:00,67.5,62.8,30.13,NW,315,0.0,0.0,85,0.00,OVC,OVC,0.02,WeatherDisplay:10.37,2013-08-30 16:17:00,
2013-08-30 09:32:00,69.6,64.9,30.13,NW,315,0.0,0.0,85,0.00,OVC,OVC,0.02,WeatherDisplay:10.37,2013-08-30 16:32:00,
2013-08-30 09:47:00,70.2,63.3,30.13,NW,316,0.0,0.0,79,0.00,OVC,OVC,0.02,WeatherDisplay:10.37,2013-08-30 16:47:00,
2013-08-30 10:02:00,71.2,62.9,30.13,NW,316,0.0,0.0,75,0.00,SCT,SCT,0.02,WeatherDisplay:10.37,2013-08-30 17:02:00,
2013-08-30 10:17:00,73.0,63.9,30.13,NW,316,0.0,0.0,73,0.00,SCT,SCT,0.02,WeatherDisplay:10.37,2013-08-30 17:17:00,
2013-08-30 10:32:00,73.0,63.9,30.13,NW,316,0.0,0.0,73,0.00,SCT,SCT,0.02,WeatherDisplay:10.37,2013-08-30 17:32:00,
2013-08-30 10:47:00,73.0,63.9,30.14,NW,316,0.0,0.0,73,0.00,SCT,SCT,0.02,WeatherDisplay:10.37,2013-08-30 17:47:00,
2013-08-30 11:02:00,73.0,62.7,30.13,NW,316,0.0,0.0,70,0.00,SCT,SCT,0.02,WeatherDisplay:10.37,2013-08-30 18:02:00,
2013-08-30 11:17:00,73.6,63.2,30.13,North,356,0.0,0.0,70,0.00,SCT,SCT,0.02,WeatherDisplay:10.37,2013-08-30 18:17:00,
2013-08-30 11:32:00,71.8,61.4,30.14,North,355,0.0,0.0,70,0.00,SCT,SCT,0.02,WeatherDisplay:10.37,2013-08-30 18:32:00,
2013-08-30 11:47:00,71.7,61.4,30.13,WNW,298,0.0,0.0,70,0.00,SCT,SCT,0.02,WeatherDisplay:10.37,2013-08-30 18:47:00,
2013-08-30 12:02:00,71.7,62.2,30.14,NW,319,0.0,0.0,72,0.00,OVC,OVC,0.02,WeatherDisplay:10.37,2013-08-30 19:02:00,
2013-08-30 12:17:00,69.7,60.7,30.14,NW,309,0.0,0.0,73,0.00,OVC,OVC,0.02,WeatherDisplay:10.37,2013-08-30 19:17:00,
2013-08-30 12:32:00,70.9,62.6,30.13,NW,310,0.0,0.0,75,0.00,OVC,OVC,0.02,WeatherDisplay:10.37,2013-08-30 19:32:00,
2013-08-30 12:47:00,70.5,61.4,30.14,NW,307,0.0,0.0,73,0.00,OVC,OVC,0.02,WeatherDisplay:10.37,2013-08-30 19:47:00,
2013-08-30 13:02:00,72.1,62.9,30.14,WNW,282,0.0,0.0,73,0.00,BKN,BKN,0.02,WeatherDisplay:10.37,2013-08-30 20:02:00,
2013-08-30 13:17:00,73.8,63.8,30.13,WNW,283,0.0,0.0,71,0.00,BKN,BKN,0.02,WeatherDisplay:10.37,2013-08-30 20:17:00,
2013-08-30 13:32:00,75.3,64.0,30.13,WSW,248,0.0,0.0,68,0.00,BKN,BKN,0.02,WeatherDisplay:10.37,2013-08-30 20:32:00,
2013-08-30 13:47:00,75.9,63.3,30.13,WNW,285,0.0,0.0,65,0.00,BKN,BKN,0.02,WeatherDisplay:10.37,2013-08-30 20:47:00,
2013-08-30 14:02:00,76.2,61.7,30.12,NNW,344,0.0,0.0,61,0.00,BKN,BKN,0.02,WeatherDisplay:10.37,2013-08-30 21:02:00,
2013-08-30 14:17:00,76.5,62.5,30.12,WSW,256,0.0,0.0,62,0.00,BKN,BKN,0.02,WeatherDisplay:10.37,2013-08-30 21:17:00,
2013-08-30 14:32:00,76.4,61.5,30.12,NW,326,0.0,0.0,60,0.00,BKN,BKN,0.02,WeatherDisplay:10.37,2013-08-30 21:32:00,
2013-08-30 14:47:00,76.3,61.4,30.12,NNW,330,0.0,0.0,60,0.00,BKN,BKN,0.02,WeatherDisplay:10.37,2013-08-30 21:47:00,
2013-08-30 15:02:00,75.4,60.5,30.12,WSW,246,0.0,0.0,60,0.00,SCT,SCT,0.02,WeatherDisplay:10.37,2013-08-30 22:02:00,
2013-08-30 15:17:00,75.4,61.0,30.11,West,259,0.0,0.0,61,0.00,SCT,SCT,0.02,WeatherDisplay:10.37,2013-08-30 22:17:00,
2013-08-30 15:32:00,74.6,60.3,30.12,WNW,292,0.0,0.0,61,0.00,SCT,SCT,0.02,WeatherDisplay:10.37,2013-08-30 22:32:00,
2013-08-30 15:47:00,74.5,59.7,30.11,WNW,303,0.0,0.0,60,0.00,SCT,SCT,0.02,WeatherDisplay:10.37,2013-08-30 22:47:00,
2013-08-30 16:02:00,75.7,59.9,30.11,West,279,0.0,0.0,58,0.00,OVC,OVC,0.02,WeatherDisplay:10.37,2013-08-30 23:02:00,
2013-08-30 16:17:00,76.1,59.3,30.11,WNW,290,0.0,0.0,56,0.00,OVC,OVC,0.02,WeatherDisplay:10.37,2013-08-30 23:17:00,
2013-08-30 16:32:00,76.3,58.9,30.10,WNW,288,0.0,0.0,55,0.00,OVC,OVC,0.02,WeatherDisplay:10.37,2013-08-30 23:32:00,
2013-08-30 16:47:00,75.9,60.6,30.10,NW,305,0.0,0.0,59,0.00,OVC,OVC,0.02,WeatherDisplay:10.37,2013-08-30 23:47:00,
2013-08-30 17:02:00,74.9,60.5,30.09,NW,311,0.0,0.0,61,0.00,SCT,SCT,0.02,WeatherDisplay:10.37,2013-08-31 00:02:00,
2013-08-30 17:17:00,74.1,60.3,30.09,WNW,283,0.0,0.0,62,0.00,SCT,SCT,0.02,WeatherDisplay:10.37,2013-08-31 00:17:00,
2013-08-30 17:32:00,73.3,60.0,30.09,WNW,290,0.0,0.0,63,0.00,SCT,SCT,0.02,WeatherDisplay:10.37,2013-08-31 00:32:00,
2013-08-30 17:47:00,73.0,59.7,30.09,WNW,293,0.0,0.0,63,0.00,SCT,SCT,0.02,WeatherDisplay:10.37,2013-08-31 00:47:00,
2013-08-30 18:02:00,72.3,57.1,30.08,NW,305,0.0,0.0,59,0.00,SCT,SCT,0.02,WeatherDisplay:10.37,2013-08-31 01:02:00,
2013-08-30 18:17:00,71.8,57.6,30.08,WNW,290,0.0,0.0,61,0.00,SCT,SCT,0.02,WeatherDisplay:10.37,2013-08-31 01:17:00,
2013-08-30 18:32:00,71.4,57.3,30.08,West,264,0.0,0.0,61,0.00,SCT,SCT,0.02,WeatherDisplay:10.37,2013-08-31 01:32:00,
2013-08-30 18:47:00,70.8,57.1,30.08,WSW,240,0.0,0.0,62,0.00,SCT,SCT,0.02,WeatherDisplay:10.37,2013-08-31 01:47:00,
2013-08-30 19:02:00,69.9,57.2,30.08,SW,214,0.0,0.0,64,0.00,CLR,CLR,0.02,WeatherDisplay:10.37,2013-08-31 02:02:00,
2013-08-30 19:17:00,68.9,56.6,30.08,SW,225,0.0,0.0,65,0.00,CLR,CLR,0.02,WeatherDisplay:10.37,2013-08-31 02:17:00,
2013-08-30 19:32:00,67.6,56.3,30.08,South,181,0.0,0.0,67,0.00,CLR,CLR,0.02,WeatherDisplay:10.37,2013-08-31 02:32:00,
2013-08-30 19:47:00,66.2,55.7,30.08,SSW,213,0.0,0.0,69,0.00,CLR,CLR,0.02,WeatherDisplay:10.37,2013-08-31 02:47:00,
2013-08-30 20:02:00,64.9,55.3,30.08,SSW,205,0.0,0.0,71,0.00,SCT,SCT,0.02,WeatherDisplay:10.37,2013-08-31 03:02:00,
2013-08-30 20:17:00,63.7,54.8,30.08,South,185,0.0,0.0,73,0.00,SCT,SCT,0.02,WeatherDisplay:10.37,2013-08-31 03:17:00,
2013-08-30 20:32:00,62.5,54.1,30.08,SSW,199,0.0,0.0,74,0.00,SCT,SCT,0.02,WeatherDisplay:10.37,2013-08-31 03:32:00,
2013-08-30 20:47:00,61.9,54.2,30.07,South,189,0.0,0.0,76,0.00,SCT,SCT,0.02,WeatherDisplay:10.37,2013-08-31 03:47:00,
2013-08-30 21:02:00,61.2,53.9,30.08,South,190,0.0,0.0,77,0.00,OVC,OVC,0.02,WeatherDisplay:10.37,2013-08-31 04:02:00,
2013-08-30 21:17:00,60.4,53.2,30.08,West,260,0.0,0.0,77,0.00,OVC,OVC,0.02,WeatherDisplay:10.37,2013-08-31 04:17:00,
2013-08-30 21:32:00,59.4,52.5,30.08,SSE,161,0.0,0.0,78,0.00,OVC,OVC,0.02,WeatherDisplay:10.37,2013-08-31 04:32:00,
2013-08-30 21:47:00,58.6,51.8,30.07,SSE,163,0.0,0.0,78,0.00,OVC,OVC,0.02,WeatherDisplay:10.37,2013-08-31 04:47:00,
2013-08-30 22:02:00,57.8,51.3,30.07,South,188,0.0,0.0,79,0.00,OVC,OVC,0.02,WeatherDisplay:10.37,2013-08-31 05:02:00,
2013-08-30 22:17:00,57.0,50.6,30.08,SW,229,0.0,0.0,79,0.00,OVC,OVC,0.02,WeatherDisplay:10.37,2013-08-31 05:17:00,
2013-08-30 22:32:00,56.5,50.4,30.07,East,85,0.0,0.0,80,0.00,OVC,OVC,0.02,WeatherDisplay:10.37,2013-08-31 05:32:00,
2013-08-30 22:47:00,55.9,49.9,30.07,ESE,111,0.0,0.0,80,0.00,OVC,OVC,0.02,WeatherDisplay:10.37,2013-08-31 05:47:00,
2013-08-30 23:02:00,55.2,49.5,30.07,South,179,0.0,0.0,81,0.00,OVC,OVC,0.02,WeatherDisplay:10.37,2013-08-31 06:02:00,
2013-08-30 23:17:00,54.7,49.0,30.07,South,180,0.0,0.0,81,0.00,OVC,OVC,0.02,WeatherDisplay:10.37,2013-08-31 06:17:00,
2013-08-30 23:32:00,54.3,48.6,30.07,SSE,166,0.0,0.0,81,0.00,OVC,OVC,0.02,WeatherDisplay:10.37,2013-08-31 06:32:00,
2013-08-30 23:47:00,54.1,48.8,30.06,ESE,112,0.0,0.0,82,0.00,OVC,OVC,0.02,WeatherDisplay:10.37,2013-08-31 06:47:00,